sensor_id;sensor_type;location;lat;lon;timestamp;P1;durP1;ratioP1;P2;durP2;ratioP2
11986;SDS011;6053;51.382;6.768;2023-02-20T00:01:45;0.77;;;0.77;;
11986;SDS011;6053;51.382;6.768;2023-02-20T00:04:14;0.50;;;0.50;;
11986;SDS011;6053;51.382;6.768;2023-02-20T00:06:42;0.57;;;0.57;;
11986;SDS011;6053;51.382;6.768;2023-02-20T00:09:11;0.50;;;0.50;;
11986;SDS011;6053;51.382;6.768;2023-02-20T00:11:41;0.50;;;0.50;;
11986;SDS011;6053;51.382;6.768;2023-02-20T00:14:09;0.40;;;0.40;;
11986;SDS011;6053;51.382;6.768;2023-02-20T00:16:37;0.65;;;0.65;;
11986;SDS011;6053;51.382;6.768;2023-02-20T00:19:06;0.60;;;0.60;;
11986;SDS011;6053;51.382;6.768;2023-02-20T00:21:34;0.98;;;0.98;;
11986;SDS011;6053;51.382;6.768;2023-02-20T00:24:03;0.60;;;0.60;;
11986;SDS011;6053;51.382;6.768;2023-02-20T00:26:32;0.73;;;0.73;;
11986;SDS011;6053;51.382;6.768;2023-02-20T00:29:01;0.88;;;0.88;;
11986;SDS011;6053;51.382;6.768;2023-02-20T00:31:29;0.82;;;0.82;;
11986;SDS011;6053;51.382;6.768;2023-02-20T00:33:58;0.70;;;0.70;;
11986;SDS011;6053;51.382;6.768;2023-02-20T00:36:26;0.80;;;0.80;;
11986;SDS011;6053;51.382;6.768;2023-02-20T00:38:54;1.30;;;1.30;;
11986;SDS011;6053;51.382;6.768;2023-02-20T00:41:23;1.90;;;1.80;;
11986;SDS011;6053;51.382;6.768;2023-02-20T00:43:51;2.03;;;1.60;;
11986;SDS011;6053;51.382;6.768;2023-02-20T00:46:21;1.83;;;1.73;;
11986;SDS011;6053;51.382;6.768;2023-02-20T00:48:49;1.80;;;1.70;;
11986;SDS011;6053;51.382;6.768;2023-02-20T00:51:18;1.95;;;1.85;;
11986;SDS011;6053;51.382;6.768;2023-02-20T00:53:46;0.98;;;0.98;;
11986;SDS011;6053;51.382;6.768;2023-02-20T00:56:15;0.65;;;0.65;;
11986;SDS011;6053;51.382;6.768;2023-02-20T00:58:43;1.23;;;1.15;;
11986;SDS011;6053;51.382;6.768;2023-02-20T01:01:11;2.75;;;2.55;;
11986;SDS011;6053;51.382;6.768;2023-02-20T01:03:43;1.30;;;1.20;;
11986;SDS011;6053;51.382;6.768;2023-02-20T01:06:11;0.87;;;0.87;;
11986;SDS011;6053;51.382;6.768;2023-02-20T01:08:40;1.50;;;1.40;;
11986;SDS011;6053;51.382;6.768;2023-02-20T01:11:08;2.23;;;2.03;;
11986;SDS011;6053;51.382;6.768;2023-02-20T01:13:36;1.10;;;1.05;;
11986;SDS011;6053;51.382;6.768;2023-02-20T01:16:05;0.93;;;0.93;;
11986;SDS011;6053;51.382;6.768;2023-02-20T01:18:34;1.05;;;1.05;;
11986;SDS011;6053;51.382;6.768;2023-02-20T01:21:04;2.00;;;1.83;;
11986;SDS011;6053;51.382;6.768;2023-02-20T01:23:32;2.08;;;1.98;;
11986;SDS011;6053;51.382;6.768;2023-02-20T01:26:01;1.42;;;1.23;;
11986;SDS011;6053;51.382;6.768;2023-02-20T01:28:29;0.80;;;0.80;;
11986;SDS011;6053;51.382;6.768;2023-02-20T01:30:57;2.00;;;1.90;;
11986;SDS011;6053;51.382;6.768;2023-02-20T01:33:26;1.52;;;1.42;;
11986;SDS011;6053;51.382;6.768;2023-02-20T01:35:54;1.73;;;1.63;;
11986;SDS011;6053;51.382;6.768;2023-02-20T01:38:24;1.77;;;1.67;;
11986;SDS011;6053;51.382;6.768;2023-02-20T01:40:52;1.27;;;1.17;;
11986;SDS011;6053;51.382;6.768;2023-02-20T01:43:21;0.60;;;0.60;;
11986;SDS011;6053;51.382;6.768;2023-02-20T01:45:49;1.30;;;1.30;;
11986;SDS011;6053;51.382;6.768;2023-02-20T01:48:19;1.70;;;0.85;;
11986;SDS011;6053;51.382;6.768;2023-02-20T01:50:49;1.85;;;1.70;;
11986;SDS011;6053;51.382;6.768;2023-02-20T01:53:23;1.10;;;1.05;;
11986;SDS011;6053;51.382;6.768;2023-02-20T01:55:57;0.80;;;0.75;;
11986;SDS011;6053;51.382;6.768;2023-02-20T01:58:29;0.80;;;0.80;;
11986;SDS011;6053;51.382;6.768;2023-02-20T02:01:03;2.17;;;2.07;;
11986;SDS011;6053;51.382;6.768;2023-02-20T02:03:32;0.88;;;0.88;;
11986;SDS011;6053;51.382;6.768;2023-02-20T02:06:06;1.70;;;1.60;;
11986;SDS011;6053;51.382;6.768;2023-02-20T02:08:40;0.70;;;0.70;;
11986;SDS011;6053;51.382;6.768;2023-02-20T02:11:10;0.90;;;0.90;;
11986;SDS011;6053;51.382;6.768;2023-02-20T02:13:43;1.00;;;1.00;;
11986;SDS011;6053;51.382;6.768;2023-02-20T02:16:14;1.50;;;1.42;;
11986;SDS011;6053;51.382;6.768;2023-02-20T02:18:55;0.85;;;0.85;;
11986;SDS011;6053;51.382;6.768;2023-02-20T02:21:48;1.50;;;1.40;;
11986;SDS011;6053;51.382;6.768;2023-02-20T02:24:57;1.15;;;1.15;;
11986;SDS011;6053;51.382;6.768;2023-02-20T02:27:53;1.05;;;1.05;;
11986;SDS011;6053;51.382;6.768;2023-02-20T02:31:12;1.60;;;1.50;;
11986;SDS011;6053;51.382;6.768;2023-02-20T02:34:30;1.38;;;1.38;;
11986;SDS011;6053;51.382;6.768;2023-02-20T02:37:48;2.85;;;2.65;;
11986;SDS011;6053;51.382;6.768;2023-02-20T02:40:25;2.03;;;1.92;;
11986;SDS011;6053;51.382;6.768;2023-02-20T02:43:06;2.00;;;1.73;;
11986;SDS011;6053;51.382;6.768;2023-02-20T02:45:41;1.23;;;1.13;;
11986;SDS011;6053;51.382;6.768;2023-02-20T02:48:18;0.80;;;0.80;;
11986;SDS011;6053;51.382;6.768;2023-02-20T02:50:51;1.00;;;1.00;;
11986;SDS011;6053;51.382;6.768;2023-02-20T02:53:24;0.83;;;0.83;;
11986;SDS011;6053;51.382;6.768;2023-02-20T02:55:53;1.52;;;1.20;;
11986;SDS011;6053;51.382;6.768;2023-02-20T02:58:21;1.13;;;1.13;;
11986;SDS011;6053;51.382;6.768;2023-02-20T03:00:51;2.35;;;2.15;;
11986;SDS011;6053;51.382;6.768;2023-02-20T03:03:24;1.50;;;1.40;;
11986;SDS011;6053;51.382;6.768;2023-02-20T03:05:57;1.37;;;1.27;;
11986;SDS011;6053;51.382;6.768;2023-02-20T03:08:33;0.93;;;0.93;;
11986;SDS011;6053;51.382;6.768;2023-02-20T03:11:07;2.10;;;2.00;;
11986;SDS011;6053;51.382;6.768;2023-02-20T03:13:41;0.88;;;0.88;;
11986;SDS011;6053;51.382;6.768;2023-02-20T03:16:31;0.90;;;0.90;;
11986;SDS011;6053;51.382;6.768;2023-02-20T03:19:07;2.70;;;2.50;;
11986;SDS011;6053;51.382;6.768;2023-02-20T03:21:39;1.10;;;1.10;;
11986;SDS011;6053;51.382;6.768;2023-02-20T03:24:14;1.30;;;1.20;;
11986;SDS011;6053;51.382;6.768;2023-02-20T03:26:46;2.17;;;2.03;;
11986;SDS011;6053;51.382;6.768;2023-02-20T03:29:16;1.23;;;1.20;;
11986;SDS011;6053;51.382;6.768;2023-02-20T03:31:54;1.30;;;1.30;;
11986;SDS011;6053;51.382;6.768;2023-02-20T03:34:47;2.08;;;1.88;;
11986;SDS011;6053;51.382;6.768;2023-02-20T03:37:37;1.48;;;1.38;;
11986;SDS011;6053;51.382;6.768;2023-02-20T03:40:26;1.73;;;1.63;;
11986;SDS011;6053;51.382;6.768;2023-02-20T03:43:14;2.25;;;2.05;;
11986;SDS011;6053;51.382;6.768;2023-02-20T03:45:50;1.60;;;1.50;;
11986;SDS011;6053;51.382;6.768;2023-02-20T03:48:23;2.75;;;2.13;;
11986;SDS011;6053;51.382;6.768;2023-02-20T03:50:57;1.15;;;1.10;;
11986;SDS011;6053;51.382;6.768;2023-02-20T03:53:25;1.60;;;1.50;;
11986;SDS011;6053;51.382;6.768;2023-02-20T03:55:56;2.72;;;2.50;;
11986;SDS011;6053;51.382;6.768;2023-02-20T03:58:28;1.73;;;1.20;;
11986;SDS011;6053;51.382;6.768;2023-02-20T04:01:01;2.67;;;2.22;;
11986;SDS011;6053;51.382;6.768;2023-02-20T04:03:33;1.70;;;1.60;;
11986;SDS011;6053;51.382;6.768;2023-02-20T04:06:08;2.00;;;1.90;;
11986;SDS011;6053;51.382;6.768;2023-02-20T04:08:39;2.40;;;2.20;;
11986;SDS011;6053;51.382;6.768;2023-02-20T04:11:13;1.50;;;1.40;;
11986;SDS011;6053;51.382;6.768;2023-02-20T04:13:46;1.60;;;1.50;;
11986;SDS011;6053;51.382;6.768;2023-02-20T04:16:16;0.95;;;0.95;;
11986;SDS011;6053;51.382;6.768;2023-02-20T04:18:46;2.35;;;2.15;;
11986;SDS011;6053;51.382;6.768;2023-02-20T04:21:18;1.90;;;1.73;;
11986;SDS011;6053;51.382;6.768;2023-02-20T04:23:56;2.47;;;2.25;;
11986;SDS011;6053;51.382;6.768;2023-02-20T04:26:33;1.10;;;1.10;;
11986;SDS011;6053;51.382;6.768;2023-02-20T04:29:04;1.00;;;1.00;;
11986;SDS011;6053;51.382;6.768;2023-02-20T04:31:33;5.13;;;2.83;;
11986;SDS011;6053;51.382;6.768;2023-02-20T04:34:01;2.20;;;1.88;;
11986;SDS011;6053;51.382;6.768;2023-02-20T04:36:29;1.58;;;1.48;;
11986;SDS011;6053;51.382;6.768;2023-02-20T04:38:58;0.90;;;0.90;;
11986;SDS011;6053;51.382;6.768;2023-02-20T04:41:26;2.22;;;2.03;;
11986;SDS011;6053;51.382;6.768;2023-02-20T04:43:56;1.92;;;1.67;;
11986;SDS011;6053;51.382;6.768;2023-02-20T04:46:38;1.47;;;1.20;;
11986;SDS011;6053;51.382;6.768;2023-02-20T04:49:06;1.88;;;1.23;;
11986;SDS011;6053;51.382;6.768;2023-02-20T04:51:34;1.83;;;1.67;;
11986;SDS011;6053;51.382;6.768;2023-02-20T04:54:03;3.63;;;2.08;;
11986;SDS011;6053;51.382;6.768;2023-02-20T04:56:31;3.10;;;1.60;;
11986;SDS011;6053;51.382;6.768;2023-02-20T04:59:01;0.88;;;0.88;;
11986;SDS011;6053;51.382;6.768;2023-02-20T05:01:30;1.00;;;0.90;;
11986;SDS011;6053;51.382;6.768;2023-02-20T05:03:58;3.05;;;2.13;;
11986;SDS011;6053;51.382;6.768;2023-02-20T05:06:26;0.80;;;0.80;;
11986;SDS011;6053;51.382;6.768;2023-02-20T05:08:55;1.50;;;1.40;;
11986;SDS011;6053;51.382;6.768;2023-02-20T05:11:24;2.17;;;1.33;;
11986;SDS011;6053;51.382;6.768;2023-02-20T05:13:52;1.08;;;1.02;;
11986;SDS011;6053;51.382;6.768;2023-02-20T05:16:22;2.20;;;1.50;;
11986;SDS011;6053;51.382;6.768;2023-02-20T05:18:50;0.90;;;0.90;;
11986;SDS011;6053;51.382;6.768;2023-02-20T05:21:18;1.10;;;1.10;;
11986;SDS011;6053;51.382;6.768;2023-02-20T05:24:04;1.88;;;1.30;;
11986;SDS011;6053;51.382;6.768;2023-02-20T05:26:35;1.20;;;1.10;;
11986;SDS011;6053;51.382;6.768;2023-02-20T05:29:03;0.90;;;0.90;;
11986;SDS011;6053;51.382;6.768;2023-02-20T05:31:33;1.70;;;1.15;;
11986;SDS011;6053;51.382;6.768;2023-02-20T05:34:02;3.00;;;1.92;;
11986;SDS011;6053;51.382;6.768;2023-02-20T05:36:30;1.50;;;1.00;;
11986;SDS011;6053;51.382;6.768;2023-02-20T05:38:58;4.07;;;1.95;;
11986;SDS011;6053;51.382;6.768;2023-02-20T05:41:27;1.33;;;1.23;;
11986;SDS011;6053;51.382;6.768;2023-02-20T05:43:55;2.30;;;1.37;;
11986;SDS011;6053;51.382;6.768;2023-02-20T05:46:25;5.32;;;2.17;;
11986;SDS011;6053;51.382;6.768;2023-02-20T05:48:55;2.90;;;1.58;;
11986;SDS011;6053;51.382;6.768;2023-02-20T05:51:24;1.60;;;1.50;;
11986;SDS011;6053;51.382;6.768;2023-02-20T05:53:58;3.00;;;1.88;;
11986;SDS011;6053;51.382;6.768;2023-02-20T05:56:26;4.90;;;2.25;;
11986;SDS011;6053;51.382;6.768;2023-02-20T05:58:55;4.73;;;2.20;;
11986;SDS011;6053;51.382;6.768;2023-02-20T06:01:24;3.85;;;1.80;;
11986;SDS011;6053;51.382;6.768;2023-02-20T06:03:56;2.00;;;1.80;;
11986;SDS011;6053;51.382;6.768;2023-02-20T06:06:30;3.25;;;2.47;;
11986;SDS011;6053;51.382;6.768;2023-02-20T06:08:59;3.65;;;1.63;;
11986;SDS011;6053;51.382;6.768;2023-02-20T06:11:28;1.75;;;1.65;;
11986;SDS011;6053;51.382;6.768;2023-02-20T06:13:57;2.95;;;1.52;;
11986;SDS011;6053;51.382;6.768;2023-02-20T06:16:26;2.28;;;1.80;;
11986;SDS011;6053;51.382;6.768;2023-02-20T06:18:58;3.47;;;2.40;;
11986;SDS011;6053;51.382;6.768;2023-02-20T06:21:26;3.40;;;2.40;;
11986;SDS011;6053;51.382;6.768;2023-02-20T06:23:55;3.13;;;1.98;;
11986;SDS011;6053;51.382;6.768;2023-02-20T06:26:24;3.35;;;2.28;;
11986;SDS011;6053;51.382;6.768;2023-02-20T06:28:53;3.47;;;2.30;;
11986;SDS011;6053;51.382;6.768;2023-02-20T06:31:23;2.53;;;1.50;;
11986;SDS011;6053;51.382;6.768;2023-02-20T06:33:54;3.42;;;2.53;;
11986;SDS011;6053;51.382;6.768;2023-02-20T06:36:25;5.03;;;2.60;;
11986;SDS011;6053;51.382;6.768;2023-02-20T06:38:55;4.35;;;2.92;;
11986;SDS011;6053;51.382;6.768;2023-02-20T06:41:24;2.25;;;2.05;;
11986;SDS011;6053;51.382;6.768;2023-02-20T06:43:53;2.33;;;2.05;;
11986;SDS011;6053;51.382;6.768;2023-02-20T06:46:21;5.22;;;2.65;;
11986;SDS011;6053;51.382;6.768;2023-02-20T06:48:51;5.85;;;3.00;;
11986;SDS011;6053;51.382;6.768;2023-02-20T06:51:23;3.58;;;3.00;;
11986;SDS011;6053;51.382;6.768;2023-02-20T06:53:55;2.13;;;1.98;;
11986;SDS011;6053;51.382;6.768;2023-02-20T06:56:24;1.65;;;1.48;;
11986;SDS011;6053;51.382;6.768;2023-02-20T06:58:55;2.13;;;1.77;;
11986;SDS011;6053;51.382;6.768;2023-02-20T07:01:24;2.95;;;2.05;;
11986;SDS011;6053;51.382;6.768;2023-02-20T07:03:55;5.38;;;3.47;;
11986;SDS011;6053;51.382;6.768;2023-02-20T07:06:28;6.15;;;4.20;;
11986;SDS011;6053;51.382;6.768;2023-02-20T07:08:56;5.47;;;3.03;;
11986;SDS011;6053;51.382;6.768;2023-02-20T07:11:25;1.33;;;1.27;;
11986;SDS011;6053;51.382;6.768;2023-02-20T07:13:54;4.50;;;2.90;;
11986;SDS011;6053;51.382;6.768;2023-02-20T07:16:24;6.05;;;4.07;;
11986;SDS011;6053;51.382;6.768;2023-02-20T07:18:52;7.22;;;4.00;;
11986;SDS011;6053;51.382;6.768;2023-02-20T07:21:21;5.70;;;3.70;;
11986;SDS011;6053;51.382;6.768;2023-02-20T07:23:51;6.03;;;3.47;;
11986;SDS011;6053;51.382;6.768;2023-02-20T07:26:21;4.15;;;3.15;;
11986;SDS011;6053;51.382;6.768;2023-02-20T07:28:50;4.63;;;3.38;;
11986;SDS011;6053;51.382;6.768;2023-02-20T07:31:20;4.18;;;3.13;;
11986;SDS011;6053;51.382;6.768;2023-02-20T07:33:48;3.85;;;2.92;;
11986;SDS011;6053;51.382;6.768;2023-02-20T07:36:17;5.22;;;3.22;;
11986;SDS011;6053;51.382;6.768;2023-02-20T07:38:52;4.00;;;2.83;;
11986;SDS011;6053;51.382;6.768;2023-02-20T07:41:22;5.22;;;3.58;;
11986;SDS011;6053;51.382;6.768;2023-02-20T07:43:54;4.90;;;3.20;;
11986;SDS011;6053;51.382;6.768;2023-02-20T07:46:23;4.18;;;3.22;;
11986;SDS011;6053;51.382;6.768;2023-02-20T07:48:52;5.87;;;3.07;;
11986;SDS011;6053;51.382;6.768;2023-02-20T07:51:21;6.20;;;3.60;;
11986;SDS011;6053;51.382;6.768;2023-02-20T07:53:50;4.72;;;3.72;;
11986;SDS011;6053;51.382;6.768;2023-02-20T07:56:21;7.30;;;3.97;;
11986;SDS011;6053;51.382;6.768;2023-02-20T07:58:50;5.30;;;3.00;;
11986;SDS011;6053;51.382;6.768;2023-02-20T08:01:19;3.75;;;2.53;;
11986;SDS011;6053;51.382;6.768;2023-02-20T08:03:48;4.80;;;2.78;;
11986;SDS011;6053;51.382;6.768;2023-02-20T08:06:17;2.97;;;2.42;;
11986;SDS011;6053;51.382;6.768;2023-02-20T08:08:46;4.07;;;2.55;;
11986;SDS011;6053;51.382;6.768;2023-02-20T08:11:18;5.50;;;3.27;;
11986;SDS011;6053;51.382;6.768;2023-02-20T08:13:47;7.05;;;3.60;;
11986;SDS011;6053;51.382;6.768;2023-02-20T08:16:16;3.80;;;2.90;;
11986;SDS011;6053;51.382;6.768;2023-02-20T08:18:45;3.83;;;3.20;;
11986;SDS011;6053;51.382;6.768;2023-02-20T08:21:14;3.27;;;2.47;;
11986;SDS011;6053;51.382;6.768;2023-02-20T08:23:42;5.63;;;2.80;;
11986;SDS011;6053;51.382;6.768;2023-02-20T08:26:11;3.70;;;2.92;;
11986;SDS011;6053;51.382;6.768;2023-02-20T08:28:42;4.78;;;3.53;;
11986;SDS011;6053;51.382;6.768;2023-02-20T08:31:12;4.85;;;3.05;;
11986;SDS011;6053;51.382;6.768;2023-02-20T08:33:57;3.80;;;2.72;;
11986;SDS011;6053;51.382;6.768;2023-02-20T08:36:26;5.20;;;3.22;;
11986;SDS011;6053;51.382;6.768;2023-02-20T08:38:54;2.05;;;1.83;;
11986;SDS011;6053;51.382;6.768;2023-02-20T08:41:25;5.50;;;3.70;;
11986;SDS011;6053;51.382;6.768;2023-02-20T08:43:55;4.60;;;2.38;;
11986;SDS011;6053;51.382;6.768;2023-02-20T08:46:24;6.25;;;3.95;;
11986;SDS011;6053;51.382;6.768;2023-02-20T08:48:52;7.07;;;3.65;;
11986;SDS011;6053;51.382;6.768;2023-02-20T08:51:21;9.57;;;4.10;;
11986;SDS011;6053;51.382;6.768;2023-02-20T08:53:51;6.70;;;3.50;;
11986;SDS011;6053;51.382;6.768;2023-02-20T08:56:20;3.65;;;2.45;;
11986;SDS011;6053;51.382;6.768;2023-02-20T08:58:49;5.13;;;2.60;;
11986;SDS011;6053;51.382;6.768;2023-02-20T09:01:19;5.88;;;3.53;;
11986;SDS011;6053;51.382;6.768;2023-02-20T09:03:47;5.90;;;3.55;;
11986;SDS011;6053;51.382;6.768;2023-02-20T09:06:16;2.40;;;1.60;;
11986;SDS011;6053;51.382;6.768;2023-02-20T09:08:45;5.20;;;3.20;;
11986;SDS011;6053;51.382;6.768;2023-02-20T09:11:14;5.65;;;3.20;;
11986;SDS011;6053;51.382;6.768;2023-02-20T09:13:43;7.30;;;3.78;;
11986;SDS011;6053;51.382;6.768;2023-02-20T09:16:12;4.05;;;2.95;;
11986;SDS011;6053;51.382;6.768;2023-02-20T09:18:44;4.78;;;2.92;;
11986;SDS011;6053;51.382;6.768;2023-02-20T09:21:13;5.15;;;3.10;;
11986;SDS011;6053;51.382;6.768;2023-02-20T09:23:44;5.93;;;3.23;;
11986;SDS011;6053;51.382;6.768;2023-02-20T09:26:13;4.97;;;3.90;;
11986;SDS011;6053;51.382;6.768;2023-02-20T09:28:42;8.02;;;4.20;;
11986;SDS011;6053;51.382;6.768;2023-02-20T09:31:11;7.22;;;3.90;;
11986;SDS011;6053;51.382;6.768;2023-02-20T09:33:44;6.10;;;3.70;;
11986;SDS011;6053;51.382;6.768;2023-02-20T09:36:16;7.45;;;3.35;;
11986;SDS011;6053;51.382;6.768;2023-02-20T09:38:45;6.07;;;3.30;;
11986;SDS011;6053;51.382;6.768;2023-02-20T09:41:24;4.30;;;3.08;;
11986;SDS011;6053;51.382;6.768;2023-02-20T09:44:01;7.63;;;3.38;;
11986;SDS011;6053;51.382;6.768;2023-02-20T09:46:37;5.37;;;3.13;;
11986;SDS011;6053;51.382;6.768;2023-02-20T09:49:11;7.63;;;3.65;;
11986;SDS011;6053;51.382;6.768;2023-02-20T09:51:43;3.85;;;3.00;;
11986;SDS011;6053;51.382;6.768;2023-02-20T09:54:19;6.53;;;3.10;;
11986;SDS011;6053;51.382;6.768;2023-02-20T09:56:54;5.70;;;3.50;;
11986;SDS011;6053;51.382;6.768;2023-02-20T09:59:27;5.90;;;3.28;;
11986;SDS011;6053;51.382;6.768;2023-02-20T10:02:00;5.22;;;3.60;;
11986;SDS011;6053;51.382;6.768;2023-02-20T10:04:41;5.18;;;3.72;;
11986;SDS011;6053;51.382;6.768;2023-02-20T10:07:27;6.15;;;3.75;;
11986;SDS011;6053;51.382;6.768;2023-02-20T10:09:57;5.93;;;3.50;;
11986;SDS011;6053;51.382;6.768;2023-02-20T10:12:28;4.27;;;2.70;;
11986;SDS011;6053;51.382;6.768;2023-02-20T10:15:10;3.83;;;2.63;;
11986;SDS011;6053;51.382;6.768;2023-02-20T10:17:48;3.53;;;2.20;;
11986;SDS011;6053;51.382;6.768;2023-02-20T10:20:29;5.90;;;2.90;;
11986;SDS011;6053;51.382;6.768;2023-02-20T10:23:06;5.72;;;3.42;;
11986;SDS011;6053;51.382;6.768;2023-02-20T10:25:42;3.78;;;2.35;;
11986;SDS011;6053;51.382;6.768;2023-02-20T10:28:16;3.13;;;2.50;;
11986;SDS011;6053;51.382;6.768;2023-02-20T10:30:49;3.83;;;3.35;;
11986;SDS011;6053;51.382;6.768;2023-02-20T10:33:25;3.92;;;3.15;;
11986;SDS011;6053;51.382;6.768;2023-02-20T10:36:03;8.63;;;3.60;;
11986;SDS011;6053;51.382;6.768;2023-02-20T10:38:40;8.15;;;3.38;;
11986;SDS011;6053;51.382;6.768;2023-02-20T10:41:17;5.78;;;2.85;;
11986;SDS011;6053;51.382;6.768;2023-02-20T10:43:54;6.30;;;3.58;;
11986;SDS011;6053;51.382;6.768;2023-02-20T10:46:29;7.25;;;3.30;;
11986;SDS011;6053;51.382;6.768;2023-02-20T10:49:15;6.37;;;3.67;;
11986;SDS011;6053;51.382;6.768;2023-02-20T10:51:50;4.17;;;2.97;;
11986;SDS011;6053;51.382;6.768;2023-02-20T10:54:27;3.13;;;2.50;;
11986;SDS011;6053;51.382;6.768;2023-02-20T10:57:05;3.92;;;2.53;;
11986;SDS011;6053;51.382;6.768;2023-02-20T10:59:40;4.50;;;2.78;;
11986;SDS011;6053;51.382;6.768;2023-02-20T11:02:14;7.07;;;3.47;;
11986;SDS011;6053;51.382;6.768;2023-02-20T11:04:47;4.78;;;3.25;;
11986;SDS011;6053;51.382;6.768;2023-02-20T11:07:23;9.17;;;4.10;;
11986;SDS011;6053;51.382;6.768;2023-02-20T11:09:51;8.23;;;3.92;;
11986;SDS011;6053;51.382;6.768;2023-02-20T11:12:22;6.10;;;3.00;;
11986;SDS011;6053;51.382;6.768;2023-02-20T11:14:58;4.70;;;2.80;;
11986;SDS011;6053;51.382;6.768;2023-02-20T11:17:32;6.28;;;3.28;;
11986;SDS011;6053;51.382;6.768;2023-02-20T11:20:04;8.43;;;3.45;;
11986;SDS011;6053;51.382;6.768;2023-02-20T11:22:55;4.20;;;3.35;;
11986;SDS011;6053;51.382;6.768;2023-02-20T11:25:25;7.13;;;3.58;;
11986;SDS011;6053;51.382;6.768;2023-02-20T11:27:55;3.83;;;2.70;;
11986;SDS011;6053;51.382;6.768;2023-02-20T11:30:27;5.78;;;3.28;;
11986;SDS011;6053;51.382;6.768;2023-02-20T11:33:00;5.28;;;2.97;;
11986;SDS011;6053;51.382;6.768;2023-02-20T11:35:32;5.72;;;3.13;;
11986;SDS011;6053;51.382;6.768;2023-02-20T11:38:25;4.05;;;3.47;;
11986;SDS011;6053;51.382;6.768;2023-02-20T11:41:01;4.95;;;3.50;;
11986;SDS011;6053;51.382;6.768;2023-02-20T11:44:06;3.13;;;2.25;;
11986;SDS011;6053;51.382;6.768;2023-02-20T11:50:13;5.63;;;3.15;;
11986;SDS011;6053;51.382;6.768;2023-02-20T11:52:56;4.93;;;3.35;;
11986;SDS011;6053;51.382;6.768;2023-02-20T11:55:28;6.43;;;3.75;;
11986;SDS011;6053;51.382;6.768;2023-02-20T11:57:58;5.47;;;3.63;;
11986;SDS011;6053;51.382;6.768;2023-02-20T12:00:27;4.17;;;2.60;;
11986;SDS011;6053;51.382;6.768;2023-02-20T12:03:11;6.27;;;3.00;;
11986;SDS011;6053;51.382;6.768;2023-02-20T12:05:44;3.58;;;2.55;;
11986;SDS011;6053;51.382;6.768;2023-02-20T12:08:23;6.25;;;3.70;;
11986;SDS011;6053;51.382;6.768;2023-02-20T12:11:04;3.95;;;2.75;;
11986;SDS011;6053;51.382;6.768;2023-02-20T12:13:38;5.72;;;3.92;;
11986;SDS011;6053;51.382;6.768;2023-02-20T12:16:14;5.25;;;3.10;;
11986;SDS011;6053;51.382;6.768;2023-02-20T12:19:12;5.05;;;2.75;;
11986;SDS011;6053;51.382;6.768;2023-02-20T12:21:48;4.28;;;3.15;;
11986;SDS011;6053;51.382;6.768;2023-02-20T12:27:42;5.00;;;3.13;;
11986;SDS011;6053;51.382;6.768;2023-02-20T12:30:26;2.33;;;1.60;;
11986;SDS011;6053;51.382;6.768;2023-02-20T12:33:10;4.40;;;2.35;;
11986;SDS011;6053;51.382;6.768;2023-02-20T12:36:00;6.00;;;2.93;;
11986;SDS011;6053;51.382;6.768;2023-02-20T12:38:38;4.05;;;2.85;;
11986;SDS011;6053;51.382;6.768;2023-02-20T12:41:18;5.38;;;3.13;;
11986;SDS011;6053;51.382;6.768;2023-02-20T12:43:59;3.47;;;2.75;;
11986;SDS011;6053;51.382;6.768;2023-02-20T12:46:45;2.50;;;2.33;;
11986;SDS011;6053;51.382;6.768;2023-02-20T12:49:29;3.92;;;3.28;;
11986;SDS011;6053;51.382;6.768;2023-02-20T12:52:23;6.28;;;3.75;;
11986;SDS011;6053;51.382;6.768;2023-02-20T12:55:04;4.93;;;3.33;;
11986;SDS011;6053;51.382;6.768;2023-02-20T12:57:43;4.97;;;3.70;;
11986;SDS011;6053;51.382;6.768;2023-02-20T13:00:27;4.15;;;3.03;;
11986;SDS011;6053;51.382;6.768;2023-02-20T13:03:00;2.53;;;2.00;;
11986;SDS011;6053;51.382;6.768;2023-02-20T13:05:36;6.38;;;3.60;;
11986;SDS011;6053;51.382;6.768;2023-02-20T13:08:09;3.83;;;2.78;;
11986;SDS011;6053;51.382;6.768;2023-02-20T13:10:44;5.22;;;3.55;;
11986;SDS011;6053;51.382;6.768;2023-02-20T13:13:17;6.33;;;3.40;;
11986;SDS011;6053;51.382;6.768;2023-02-20T13:15:49;4.70;;;3.17;;
11986;SDS011;6053;51.382;6.768;2023-02-20T13:18:24;5.68;;;3.22;;
11986;SDS011;6053;51.382;6.768;2023-02-20T13:21:00;4.95;;;3.33;;
11986;SDS011;6053;51.382;6.768;2023-02-20T13:23:32;6.63;;;3.67;;
11986;SDS011;6053;51.382;6.768;2023-02-20T13:26:02;8.45;;;3.53;;
11986;SDS011;6053;51.382;6.768;2023-02-20T13:29:03;4.38;;;3.15;;
11986;SDS011;6053;51.382;6.768;2023-02-20T13:31:42;5.47;;;2.83;;
11986;SDS011;6053;51.382;6.768;2023-02-20T13:34:31;6.60;;;4.10;;
11986;SDS011;6053;51.382;6.768;2023-02-20T13:37:02;4.10;;;3.20;;
11986;SDS011;6053;51.382;6.768;2023-02-20T13:39:35;6.77;;;4.00;;
11986;SDS011;6053;51.382;6.768;2023-02-20T13:48:19;7.03;;;3.40;;
11986;SDS011;6053;51.382;6.768;2023-02-20T13:53:59;2.90;;;2.67;;
11986;SDS011;6053;51.382;6.768;2023-02-20T13:56:55;7.38;;;3.90;;
11986;SDS011;6053;51.382;6.768;2023-02-20T13:59:28;4.75;;;3.00;;
11986;SDS011;6053;51.382;6.768;2023-02-20T14:02:00;5.30;;;3.55;;
11986;SDS011;6053;51.382;6.768;2023-02-20T14:04:38;3.80;;;2.80;;
11986;SDS011;6053;51.382;6.768;2023-02-20T14:07:25;6.78;;;3.80;;
11986;SDS011;6053;51.382;6.768;2023-02-20T14:09:59;5.60;;;3.70;;
11986;SDS011;6053;51.382;6.768;2023-02-20T14:12:30;3.80;;;2.53;;
11986;SDS011;6053;51.382;6.768;2023-02-20T14:15:02;6.65;;;3.78;;
11986;SDS011;6053;51.382;6.768;2023-02-20T14:17:32;6.18;;;2.85;;
11986;SDS011;6053;51.382;6.768;2023-02-20T14:20:13;3.90;;;2.47;;
11986;SDS011;6053;51.382;6.768;2023-02-20T14:22:48;1.77;;;1.40;;
11986;SDS011;6053;51.382;6.768;2023-02-20T14:25:32;1.45;;;1.25;;
11986;SDS011;6053;51.382;6.768;2023-02-20T14:28:10;4.35;;;2.83;;
11986;SDS011;6053;51.382;6.768;2023-02-20T14:30:40;0.80;;;0.80;;
11986;SDS011;6053;51.382;6.768;2023-02-20T14:33:18;1.35;;;1.30;;
11986;SDS011;6053;51.382;6.768;2023-02-20T14:35:59;3.67;;;3.00;;
11986;SDS011;6053;51.382;6.768;2023-02-20T14:38:44;5.80;;;3.10;;
11986;SDS011;6053;51.382;6.768;2023-02-20T14:41:30;4.97;;;2.75;;
11986;SDS011;6053;51.382;6.768;2023-02-20T14:43:59;6.67;;;3.10;;
11986;SDS011;6053;51.382;6.768;2023-02-20T14:46:30;8.20;;;3.80;;
11986;SDS011;6053;51.382;6.768;2023-02-20T14:49:05;5.03;;;2.42;;
11986;SDS011;6053;51.382;6.768;2023-02-20T14:51:36;3.93;;;2.50;;
11986;SDS011;6053;51.382;6.768;2023-02-20T14:54:16;5.55;;;2.95;;
11986;SDS011;6053;51.382;6.768;2023-02-20T14:56:47;4.85;;;2.78;;
11986;SDS011;6053;51.382;6.768;2023-02-20T14:59:22;4.10;;;3.10;;
11986;SDS011;6053;51.382;6.768;2023-02-20T15:01:55;2.55;;;2.33;;
11986;SDS011;6053;51.382;6.768;2023-02-20T15:04:25;4.15;;;2.95;;
11986;SDS011;6053;51.382;6.768;2023-02-20T15:07:02;4.60;;;2.97;;
11986;SDS011;6053;51.382;6.768;2023-02-20T15:09:36;4.28;;;3.25;;
11986;SDS011;6053;51.382;6.768;2023-02-20T15:12:06;9.25;;;3.67;;
11986;SDS011;6053;51.382;6.768;2023-02-20T15:14:52;6.22;;;2.97;;
11986;SDS011;6053;51.382;6.768;2023-02-20T15:17:23;6.13;;;2.63;;
11986;SDS011;6053;51.382;6.768;2023-02-20T15:19:54;7.28;;;3.70;;
11986;SDS011;6053;51.382;6.768;2023-02-20T15:22:25;1.57;;;1.40;;
11986;SDS011;6053;51.382;6.768;2023-02-20T15:25:19;5.10;;;3.42;;
11986;SDS011;6053;51.382;6.768;2023-02-20T15:28:02;3.78;;;1.95;;
11986;SDS011;6053;51.382;6.768;2023-02-20T15:30:33;5.27;;;3.60;;
11986;SDS011;6053;51.382;6.768;2023-02-20T15:33:06;8.02;;;4.03;;
11986;SDS011;6053;51.382;6.768;2023-02-20T15:35:36;9.77;;;4.60;;
11986;SDS011;6053;51.382;6.768;2023-02-20T15:38:06;4.15;;;2.58;;
11986;SDS011;6053;51.382;6.768;2023-02-20T15:40:35;1.52;;;1.42;;
11986;SDS011;6053;51.382;6.768;2023-02-20T15:43:08;3.97;;;2.33;;
11986;SDS011;6053;51.382;6.768;2023-02-20T15:45:58;4.53;;;2.60;;
11986;SDS011;6053;51.382;6.768;2023-02-20T15:48:27;6.43;;;2.97;;
11986;SDS011;6053;51.382;6.768;2023-02-20T15:50:55;6.75;;;2.75;;
11986;SDS011;6053;51.382;6.768;2023-02-20T15:53:26;4.30;;;2.38;;
11986;SDS011;6053;51.382;6.768;2023-02-20T15:55:56;6.25;;;3.45;;